Time;durP1;ratioP1;P1;durP2;ratioP2;P2;SDS_P1;SDS_P2;PMS_P1;PMS_P2;Temp;Humidity;BMP_temperature;BMP_pressure;BME280_temperature;BME280_humidity;BME280_pressure;Samples;Min_cycle;Max_cycle;Signal;HPM_P1;HPM_P2
2022/11/06 00:00:43;;;;;;;38.55;34.95;;;22.90;57.80;;;;;;5007520;28;20037;-63
2022/11/06 00:03:09;;;;;;;38.33;34.53;;;22.90;57.80;;;;;;5007899;28;20508;-63
2022/11/06 00:08:29;;;;;;;36.33;32.92;;;22.90;57.90;;;;;;5021664;28;20093;-63
2022/11/06 00:10:55;;;;;;;35.97;32.58;;;22.80;57.90;;;;;;5018657;28;20377;-63
2022/11/06 00:13:21;;;;;;;34.63;31.33;;;22.80;58.00;;;;;;5014524;28;20083;-64
2022/11/06 00:15:46;;;;;;;33.60;30.38;;;22.80;58.00;;;;;;4995996;28;20030;-64
2022/11/06 00:18:12;;;;;;;35.53;32.03;;;22.70;58.00;;;;;;5022797;28;20091;-63
2022/11/06 00:20:38;;;;;;;34.88;31.58;;;22.80;58.10;;;;;;5004869;28;20022;-65
2022/11/06 00:23:03;;;;;;;33.10;29.98;;;22.70;58.00;;;;;;5014260;28;20396;-64
2022/11/06 00:25:29;;;;;;;31.88;28.77;;;22.70;58.00;;;;;;5008839;28;20040;-63
2022/11/06 00:27:54;;;;;;;33.58;30.27;;;22.70;58.10;;;;;;5018741;28;20512;-63
2022/11/06 00:30:20;;;;;;;31.75;28.73;;;22.70;58.00;;;;;;5016222;28;20026;-65
2022/11/06 00:32:46;;;;;;;32.53;29.52;;;22.70;58.00;;;;;;5017373;28;20103;-63
2022/11/06 00:35:12;;;;;;;32.47;29.48;;;22.60;58.00;;;;;;5010032;28;20026;-63
2022/11/06 00:37:38;;;;;;;31.65;28.65;;;22.60;58.00;;;;;;5004669;28;20057;-64
2022/11/06 00:40:05;;;;;;;30.90;27.95;;;22.60;58.00;;;;;;5006123;28;20478;-63
2022/11/06 00:42:30;;;;;;;31.77;28.65;;;22.60;58.00;;;;;;5013464;28;20038;-63
2022/11/06 00:44:56;;;;;;;31.10;28.10;;;22.60;58.00;;;;;;5016626;28;20034;-63
2022/11/06 00:47:22;;;;;;;31.23;28.33;;;22.60;58.00;;;;;;5013393;28;20505;-63
2022/11/06 00:49:47;;;;;;;31.27;28.38;;;22.50;58.00;;;;;;5013957;28;20038;-64
2022/11/06 00:52:13;;;;;;;31.27;28.27;;;22.50;58.00;;;;;;5014219;28;20136;-64
2022/11/06 00:54:39;;;;;;;30.65;27.75;;;22.50;58.00;;;;;;5016645;28;20164;-63
2022/11/06 00:57:05;;;;;;;29.25;26.40;;;22.50;58.00;;;;;;5021931;28;20462;-63
2022/11/06 00:59:31;;;;;;;29.58;26.77;;;22.50;58.50;;;;;;5016758;28;20342;-63
2022/11/06 01:01:57;;;;;;;28.88;26.08;;;22.40;58.00;;;;;;5015025;28;20030;-63
2022/11/06 01:04:24;;;;;;;29.70;26.92;;;22.40;58.00;;;;;;5013958;28;20033;-65
2022/11/06 01:06:52;;;;;;;30.13;27.23;;;22.40;58.00;;;;;;5014855;28;20026;-63
2022/11/06 01:09:20;;;;;;;30.38;27.33;;;22.40;58.00;;;;;;5012302;28;20066;-64
2022/11/06 01:11:48;;;;;;;28.87;26.07;;;22.40;58.00;;;;;;5008574;28;20036;-63
2022/11/06 01:14:15;;;;;;;28.38;25.77;;;22.40;58.00;;;;;;5005954;28;20483;-63
2022/11/06 01:16:42;;;;;;;28.92;26.23;;;22.30;57.90;;;;;;5008884;28;20030;-63
2022/11/06 01:19:07;;;;;;;28.42;25.75;;;22.30;57.90;;;;;;5017768;28;20064;-63
2022/11/06 01:21:37;;;;;;;28.45;25.80;;;22.30;57.90;;;;;;5012249;28;20061;-63
2022/11/06 01:24:06;;;;;;;26.92;24.45;;;22.30;57.90;;;;;;5015259;28;20025;-64
2022/11/06 01:26:33;;;;;;;27.15;24.52;;;22.20;57.90;;;;;;4978633;28;1106611;-62
2022/11/06 01:28:59;;;;;;;27.75;25.05;;;22.30;57.90;;;;;;5012444;28;20145;-63
2022/11/06 01:31:28;;;;;;;28.15;25.48;;;22.20;57.90;;;;;;5014323;28;20030;-63
2022/11/06 01:33:56;;;;;;;27.20;24.70;;;22.20;57.90;;;;;;5015595;28;20411;-64
2022/11/06 01:36:22;;;;;;;28.23;25.52;;;22.20;57.90;;;;;;5016813;28;20064;-63
2022/11/06 01:38:50;;;;;;;26.30;23.80;;;22.20;58.00;;;;;;5010344;28;20037;-63
2022/11/06 01:41:19;;;;;;;26.60;24.10;;;22.20;58.00;;;;;;5007190;28;20473;-62
2022/11/06 01:43:56;;;;;;;27.52;24.83;;;22.10;57.90;;;;;;5009738;28;20480;-63
2022/11/06 01:46:25;;;;;;;26.95;24.45;;;22.10;57.90;;;;;;5013371;28;20477;-65
2022/11/06 01:49:10;;;;;;;24.85;22.45;;;22.10;58.00;;;;;;5012094;28;20045;-63
2022/11/06 01:51:49;;;;;;;27.23;24.73;;;22.10;58.00;;;;;;5015564;28;20112;-63
2022/11/06 01:54:16;;;;;;;25.02;22.63;;;22.00;58.00;;;;;;5019311;28;20048;-63
2022/11/06 01:56:45;;;;;;;25.27;22.92;;;22.00;58.00;;;;;;5010511;28;20114;-63
2022/11/06 01:59:14;;;;;;;25.58;23.23;;;22.00;58.00;;;;;;5012597;28;20477;-63
2022/11/06 02:01:40;;;;;;;;;;;22.00;58.50;;;;;;5020335;28;20036;-63
2022/11/06 02:04:16;;;;;;;25.80;23.40;;;22.00;58.00;;;;;;5015461;28;19905;-63
2022/11/06 02:06:44;;;;;;;26.30;23.75;;;22.00;58.10;;;;;;5013923;28;20401;-63
2022/11/06 02:09:11;;;;;;;26.90;24.35;;;22.00;58.10;;;;;;5009223;28;20057;-63
2022/11/06 02:11:46;;;;;;;25.42;23.02;;;22.00;58.10;;;;;;5017481;28;20022;-63
2022/11/06 02:14:16;;;;;;;26.25;23.77;;;21.90;58.00;;;;;;5016001;28;20065;-63
2022/11/06 02:17:01;;;;;;;25.83;23.38;;;21.90;58.10;;;;;;5013448;28;20026;-63
2022/11/06 02:19:37;;;;;;;25.85;23.35;;;21.90;58.10;;;;;;5007276;28;20470;-64
2022/11/06 02:22:19;;;;;;;25.30;22.90;;;21.90;58.10;;;;;;5002193;28;20486;-64
2022/11/06 02:25:18;;;;;;;25.35;22.95;;;21.90;58.20;;;;;;5006682;28;20458;-62
2022/11/06 02:28:03;;;;;;;24.98;22.67;;;21.80;58.10;;;;;;5016205;28;20041;-63
2022/11/06 02:30:38;;;;;;;24.63;22.33;;;21.80;58.10;;;;;;5014504;28;20032;-63
2022/11/06 02:33:08;;;;;;;23.73;21.52;;;21.80;58.10;;;;;;5011030;28;20482;-63
2022/11/06 02:35:42;;;;;;;23.60;21.40;;;21.80;58.20;;;;;;5015251;28;20022;-63
2022/11/06 02:38:11;;;;;;;23.77;21.58;;;21.80;58.20;;;;;;5018251;28;20090;-63
2022/11/06 02:40:41;;;;;;;22.00;19.98;;;21.80;58.20;;;;;;5024293;28;20021;-63
2022/11/06 02:43:08;;;;;;;22.50;20.48;;;21.80;58.20;;;;;;5021909;28;20044;-64
2022/11/06 02:45:42;;;;;;;23.05;20.95;;;21.80;58.20;;;;;;5016765;28;20541;-63
2022/11/06 02:48:11;;;;;;;22.58;20.45;;;21.80;58.20;;;;;;5020727;28;20050;-63
2022/11/06 02:50:44;;;;;;;21.10;19.20;;;21.70;58.10;;;;;;5016201;28;20469;-63
2022/11/06 02:53:15;;;;;;;21.95;19.92;;;21.70;58.10;;;;;;5018121;28;20061;-64
2022/11/06 02:55:45;;;;;;;22.58;20.48;;;21.70;58.20;;;;;;5013178;28;20053;-62
2022/11/06 02:58:40;;;;;;;21.02;19.13;;;21.70;58.20;;;;;;5010792;28;20034;-63
2022/11/06 03:01:29;;;;;;;22.17;20.08;;;21.70;58.10;;;;;;5005659;28;20116;-63
2022/11/06 03:04:01;;;;;;;21.35;19.35;;;21.70;58.20;;;;;;5019228;28;20176;-64
2022/11/06 03:06:59;;;;;;;21.27;19.27;;;21.70;58.20;;;;;;5014692;28;20041;-63
2022/11/06 03:09:30;;;;;;;21.48;19.48;;;21.70;58.20;;;;;;5015434;28;20198;-63
2022/11/06 03:12:06;;;;;;;21.70;19.80;;;21.60;58.20;;;;;;5011060;28;20536;-63
2022/11/06 03:14:39;;;;;;;19.83;18.08;;;21.60;58.20;;;;;;5014849;28;20017;-63
2022/11/06 03:17:17;;;;;;;20.65;18.73;;;21.70;58.30;;;;;;5020255;28;20441;-63
2022/11/06 03:19:45;;;;;;;20.95;19.00;;;21.60;58.20;;;;;;5016447;28;20053;-63
2022/11/06 03:22:25;;;;;;;21.08;19.17;;;21.60;58.30;;;;;;5016684;28;20172;-62
2022/11/06 03:24:57;;;;;;;21.38;19.38;;;21.60;58.20;;;;;;5021152;28;20032;-63
2022/11/06 03:27:34;;;;;;;19.95;18.15;;;21.60;58.30;;;;;;5016122;28;20038;-63
2022/11/06 03:30:08;;;;;;;19.50;17.70;;;21.60;58.30;;;;;;5017188;28;20050;-62
2022/11/06 03:32:55;;;;;;;19.88;18.02;;;21.50;58.30;;;;;;5017145;28;20034;-63
2022/11/06 03:35:30;;;;;;;19.92;18.10;;;21.50;58.20;;;;;;5015156;28;20544;-63
2022/11/06 03:37:59;;;;;;;19.90;18.02;;;21.50;58.30;;;;;;5017916;28;20430;-63
2022/11/06 03:40:28;;;;;;;18.63;16.90;;;21.50;58.30;;;;;;5015968;28;20030;-63
2022/11/06 03:42:59;;;;;;;19.05;17.35;;;21.50;58.30;;;;;;5017920;28;20572;-63
2022/11/06 03:45:26;;;;;;;20.40;18.50;;;21.50;58.30;;;;;;5017510;28;20118;-65
2022/11/06 03:47:58;;;;;;;18.65;16.95;;;21.50;58.30;;;;;;5012894;28;20116;-63
2022/11/06 03:50:32;;;;;;;18.98;17.17;;;21.50;58.40;;;;;;5013651;28;20028;-64
2022/11/06 03:53:28;;;;;;;20.35;18.25;;;21.50;58.40;;;;;;5017986;28;20481;-63
2022/11/06 03:56:17;;;;;;;19.08;17.27;;;21.50;58.40;;;;;;5018615;28;20389;-63
2022/11/06 03:58:46;;;;;;;19.20;17.50;;;21.40;58.30;;;;;;5019689;28;20036;-63
2022/11/06 04:01:15;;;;;;;18.98;17.25;;;21.40;58.40;;;;;;5020324;28;20033;-63
2022/11/06 04:03:47;;;;;;;19.23;17.42;;;21.40;58.90;;;;;;5011185;28;20046;-63
2022/11/06 04:06:28;;;;;;;18.88;17.13;;;21.40;58.40;;;;;;5021725;28;20033;-63
2022/11/06 04:14:30;;;;;;;17.50;15.90;;;21.40;58.40;;;;;;5022495;28;20425;-63
2022/11/06 04:17:01;;;;;;;16.92;15.40;;;21.40;58.40;;;;;;5013044;28;20025;-63
2022/11/06 04:19:26;;;;;;;16.92;15.38;;;21.40;58.40;;;;;;5012088;28;20029;-64
2022/11/06 04:22:15;;;;;;;16.73;15.13;;;21.40;58.40;;;;;;5000792;28;20031;-63
2022/11/06 04:27:40;;;;;;;17.13;15.52;;;21.30;58.40;;;;;;5017702;28;20092;-63
2022/11/06 04:30:16;;;;;;;16.88;15.38;;;21.40;58.50;;;;;;5011798;28;20026;-64
2022/11/06 04:32:54;;;;;;;16.55;15.05;;;21.30;58.40;;;;;;5018768;28;20068;-63
2022/11/06 04:35:24;;;;;;;16.88;15.27;;;21.30;58.40;;;;;;5024375;28;20437;-63
2022/11/06 04:37:55;;;;;;;15.68;14.25;;;21.30;58.40;;;;;;5022684;28;20425;-62
2022/11/06 04:40:40;;;;;;;15.27;13.88;;;21.30;58.40;;;;;;5009200;28;20026;-63
2022/11/06 04:43:13;;;;;;;15.80;14.30;;;21.30;58.50;;;;;;5011665;28;20486;-64
2022/11/06 04:45:44;;;;;;;16.27;14.77;;;21.30;58.40;;;;;;5017717;28;20036;-62
2022/11/06 04:48:11;;;;;;;15.55;14.15;;;21.30;58.40;;;;;;5013509;28;20089;-64
2022/11/06 04:50:49;;;;;;;15.05;13.68;;;21.30;58.90;;;;;;5011380;28;20064;-63
2022/11/06 04:53:16;;;;;;;15.43;14.02;;;21.30;58.40;;;;;;5006511;28;20029;-63
2022/11/06 04:55:51;;;;;;;15.32;13.88;;;21.30;58.50;;;;;;5003738;28;20034;-62
2022/11/06 04:58:16;;;;;;;15.45;14.02;;;21.30;58.40;;;;;;5012259;28;20064;-63
2022/11/06 05:00:46;;;;;;;14.73;13.32;;;21.30;58.40;;;;;;5012595;28;20470;-63
2022/11/06 05:03:12;;;;;;;14.57;13.23;;;21.30;58.40;;;;;;5014307;28;20547;-64
2022/11/06 05:05:38;;;;;;;14.52;13.23;;;21.30;58.40;;;;;;5015226;28;20091;-63
2022/11/06 05:08:04;;;;;;;14.38;13.07;;;21.20;58.40;;;;;;5015742;28;20124;-63
2022/11/06 05:10:29;;;;;;;14.25;12.95;;;21.20;58.40;;;;;;5019553;28;20037;-63
2022/11/06 05:12:55;;;;;;;14.63;13.25;;;21.30;58.50;;;;;;5025474;28;20052;-62
2022/11/06 05:15:20;;;;;;;14.07;12.77;;;21.30;58.50;;;;;;5017901;28;20113;-64
2022/11/06 05:17:46;;;;;;;13.73;12.48;;;21.30;58.50;;;;;;5015530;28;20485;-64
2022/11/06 05:20:12;;;;;;;13.88;12.68;;;21.20;58.40;;;;;;5012343;28;20081;-64
2022/11/06 05:22:57;;;;;;;13.60;12.32;;;21.20;58.40;;;;;;5013884;28;20041;-63
2022/11/06 05:25:24;;;;;;;13.52;12.30;;;21.20;58.40;;;;;;5015495;28;20026;-63
2022/11/06 05:27:49;;;;;;;13.35;12.05;;;21.20;58.40;;;;;;5008756;28;20030;-63
2022/11/06 05:30:15;;;;;;;13.70;12.40;;;21.20;58.40;;;;;;5008886;28;20417;-62
2022/11/06 05:32:41;;;;;;;12.75;11.55;;;21.20;58.40;;;;;;5030456;28;20034;-63
2022/11/06 05:35:07;;;;;;;12.80;11.60;;;21.20;58.40;;;;;;5031082;28;20389;-64
2022/11/06 05:37:32;;;;;;;12.75;11.55;;;21.20;58.40;;;;;;5037229;28;20026;-64
2022/11/06 05:39:58;;;;;;;13.52;12.30;;;21.20;58.40;;;;;;5032141;28;20025;-62
2022/11/06 05:42:23;;;;;;;12.45;11.35;;;21.20;58.40;;;;;;5032873;28;20025;-62
2022/11/06 05:44:49;;;;;;;12.65;11.45;;;21.20;58.40;;;;;;5032554;28;20504;-63
2022/11/06 05:47:15;;;;;;;12.40;11.20;;;21.20;58.40;;;;;;5032594;28;20029;-63
2022/11/06 05:49:40;;;;;;;12.98;11.77;;;21.20;58.40;;;;;;5036208;28;20369;-65
2022/11/06 05:52:06;;;;;;;12.45;11.27;;;21.20;58.40;;;;;;5029115;28;20079;-63
2022/11/06 05:54:32;;;;;;;11.55;10.45;;;21.20;58.40;;;;;;5022017;28;20363;-63
2022/11/06 05:56:57;;;;;;;11.75;10.65;;;21.20;58.40;;;;;;5036916;28;20033;-63
2022/11/06 05:59:23;;;;;;;12.43;11.32;;;21.20;58.50;;;;;;5041479;28;20033;-62
2022/11/06 06:01:49;;;;;;;11.10;10.10;;;21.10;58.40;;;;;;5018062;28;20072;-63
2022/11/06 06:04:15;;;;;;;11.65;10.57;;;21.20;58.50;;;;;;5012747;28;20065;-63
2022/11/06 06:06:41;;;;;;;12.02;10.93;;;21.10;58.40;;;;;;5012648;28;20031;-63
2022/11/06 06:09:07;;;;;;;11.82;10.73;;;21.10;58.50;;;;;;5013146;28;20096;-63
2022/11/06 06:11:33;;;;;;;12.25;11.05;;;21.10;58.40;;;;;;5018250;28;20025;-64
2022/11/06 06:13:59;;;;;;;11.27;10.18;;;21.10;58.40;;;;;;5015891;28;20032;-63
2022/11/06 06:16:24;;;;;;;11.40;10.38;;;21.10;58.50;;;;;;5016231;28;20041;-64
2022/11/06 06:18:50;;;;;;;11.40;10.30;;;21.10;58.40;;;;;;5016882;28;20109;-64
2022/11/06 06:21:16;;;;;;;11.20;10.20;;;21.10;58.50;;;;;;5015721;28;20060;-62
2022/11/06 06:23:42;;;;;;;11.30;10.30;;;21.10;58.50;;;;;;5013954;28;20021;-63
2022/11/06 06:26:08;;;;;;;10.40;9.40;;;21.10;58.50;;;;;;5009867;28;20041;-64
2022/11/06 06:28:34;;;;;;;10.82;9.82;;;21.10;58.50;;;;;;5018445;28;20153;-63
2022/11/06 06:31:04;;;;;;;11.30;10.30;;;21.10;58.50;;;;;;5012362;28;20165;-63
2022/11/06 06:33:30;;;;;;;10.52;9.52;;;21.10;58.50;;;;;;5012238;28;20072;-63
2022/11/06 06:35:56;;;;;;;10.95;9.95;;;21.10;58.50;;;;;;5005217;28;20026;-64
2022/11/06 06:38:21;;;;;;;10.90;9.90;;;21.10;58.50;;;;;;4998478;28;20311;-65
2022/11/06 06:40:47;;;;;;;11.10;10.10;;;21.10;58.50;;;;;;5005605;28;20685;-62
2022/11/06 06:43:12;;;;;;;10.20;9.20;;;21.10;58.50;;;;;;5015629;28;20105;-65
2022/11/06 06:45:38;;;;;;;10.52;9.60;;;21.10;58.50;;;;;;5023126;28;20036;-63
2022/11/06 06:48:05;;;;;;;10.93;9.93;;;21.00;58.50;;;;;;5019677;28;20057;-62
2022/11/06 06:50:31;;;;;;;10.65;9.70;;;21.10;58.50;;;;;;5009142;28;20021;-64
2022/11/06 06:52:57;;;;;;;10.13;9.20;;;21.10;58.50;;;;;;5012999;28;20378;-64
2022/11/06 06:55:24;;;;;;;10.15;9.15;;;21.00;58.50;;;;;;5020849;28;20056;-63
2022/11/06 06:58:00;;;;;;;10.00;9.05;;;21.00;58.50;;;;;;5019250;28;20397;-63
2022/11/06 07:00:27;;;;;;;10.63;9.57;;;21.00;58.50;;;;;;5013041;28;20451;-64
2022/11/06 07:02:52;;;;;;;10.40;9.40;;;21.00;58.50;;;;;;5011759;28;20485;-63
2022/11/06 07:05:18;;;;;;;10.23;9.32;;;21.00;58.50;;;;;;5016898;28;20022;-62
2022/11/06 07:07:44;;;;;;;9.75;8.85;;;21.00;58.50;;;;;;5015621;28;20030;-62
2022/11/06 07:10:10;;;;;;;9.70;8.80;;;21.00;58.50;;;;;;5014315;28;20056;-62
2022/11/06 07:12:35;;;;;;;9.85;8.95;;;21.00;58.50;;;;;;5011499;28;20050;-62
2022/11/06 07:15:01;;;;;;;9.27;8.48;;;21.00;58.50;;;;;;5004998;28;20029;-63
2022/11/06 07:17:27;;;;;;;10.00;9.10;;;21.00;58.50;;;;;;5008385;28;20062;-63
2022/11/06 07:19:52;;;;;;;9.60;8.70;;;21.00;58.50;;;;;;5016922;28;20515;-64
2022/11/06 07:22:18;;;;;;;9.40;8.50;;;21.00;58.50;;;;;;5016666;28;20057;-64
2022/11/06 07:24:44;;;;;;;9.48;8.57;;;21.00;58.60;;;;;;5008794;28;20081;-63
2022/11/06 07:27:09;;;;;;;9.48;8.57;;;21.00;58.50;;;;;;5008885;28;20447;-62
2022/11/06 07:29:35;;;;;;;8.70;7.90;;;21.00;58.60;;;;;;5008806;28;20033;-63
2022/11/06 07:32:01;;;;;;;8.88;8.07;;;21.00;58.60;;;;;;5018520;28;20515;-63
2022/11/06 07:34:26;;;;;;;9.38;8.48;;;20.90;58.50;;;;;;5025725;28;20041;-63
2022/11/06 07:36:52;;;;;;;9.20;8.35;;;21.00;58.60;;;;;;5016566;28;20026;-63
2022/11/06 07:39:17;;;;;;;9.32;8.43;;;21.00;58.60;;;;;;5020874;28;20093;-62
2022/11/06 07:41:43;;;;;;;9.40;8.50;;;21.00;58.60;;;;;;5017224;28;20504;-64
2022/11/06 07:44:09;;;;;;;9.10;8.25;;;20.90;58.60;;;;;;5020483;28;20050;-63
2022/11/06 07:46:34;;;;;;;9.05;8.15;;;21.00;58.60;;;;;;5018151;28;20030;-63
2022/11/06 07:49:00;;;;;;;8.77;7.97;;;20.90;58.60;;;;;;5009702;28;20019;-63
2022/11/06 07:51:26;;;;;;;8.68;7.88;;;20.90;58.60;;;;;;5012282;28;20493;-63
2022/11/06 07:53:51;;;;;;;8.77;7.93;;;20.90;58.60;;;;;;5014637;28;20055;-62
2022/11/06 07:56:18;;;;;;;9.10;8.27;;;20.90;58.60;;;;;;5018860;28;20029;-62
2022/11/06 07:58:43;;;;;;;8.48;7.68;;;20.90;58.60;;;;;;5015528;28;20706;-63
2022/11/06 08:01:16;;;;;;;7.97;7.28;;;20.90;58.60;;;;;;5012052;28;20172;-63
2022/11/06 08:03:42;;;;;;;8.50;7.70;;;20.90;58.60;;;;;;5011675;28;20034;-63
2022/11/06 08:06:08;;;;;;;9.10;8.20;;;20.90;58.60;;;;;;5012123;28;20072;-63
2022/11/06 08:08:33;;;;;;;8.27;7.47;;;20.90;58.60;;;;;;5012575;28;20473;-63
2022/11/06 08:11:08;;;;;;;8.18;7.38;;;20.90;58.60;;;;;;5016313;28;20021;-65
2022/11/06 08:13:34;;;;;;;7.60;6.90;;;20.90;58.60;;;;;;5013422;28;20434;-63
2022/11/06 08:16:08;;;;;;;8.15;7.40;;;20.90;58.60;;;;;;5014041;28;20465;-64
2022/11/06 08:18:34;;;;;;;7.78;7.07;;;20.90;58.60;;;;;;4993883;28;20049;-64
2022/11/06 08:21:00;;;;;;;8.15;7.35;;;20.90;58.60;;;;;;5003170;28;20385;-64
2022/11/06 08:23:26;;;;;;;7.70;7.00;;;20.90;58.60;;;;;;4993146;28;20117;-63
2022/11/06 08:25:56;;;;;;;7.53;6.82;;;20.90;58.60;;;;;;5016494;28;20042;-63
2022/11/06 08:28:23;;;;;;;7.95;7.25;;;20.90;58.60;;;;;;5019593;28;20052;-63
2022/11/06 08:30:49;;;;;;;7.55;6.85;;;20.90;58.70;;;;;;5028874;28;20029;-63
2022/11/06 08:33:14;;;;;;;7.78;7.07;;;20.80;58.60;;;;;;5038736;28;20026;-63
2022/11/06 08:35:40;;;;;;;8.13;7.43;;;20.80;58.60;;;;;;5033522;28;20025;-63
2022/11/06 08:38:06;;;;;;;7.30;6.60;;;20.80;58.60;;;;;;5033879;28;20029;-64
2022/11/06 08:40:32;;;;;;;7.50;6.80;;;20.80;58.60;;;;;;5036337;28;20131;-63
2022/11/06 08:43:02;;;;;;;7.28;6.63;;;20.80;58.60;;;;;;5038978;28;20121;-65
2022/11/06 08:45:28;;;;;;;8.00;7.20;;;20.90;58.70;;;;;;5030378;28;20029;-64
2022/11/06 08:47:54;;;;;;;7.13;6.43;;;20.80;58.70;;;;;;5030587;28;20034;-63
2022/11/06 08:50:20;;;;;;;7.03;6.32;;;20.80;58.60;;;;;;5037845;28;20033;-63
2022/11/06 08:52:46;;;;;;;6.90;6.30;;;20.80;58.70;;;;;;5037198;28;20029;-63
2022/11/06 08:55:11;;;;;;;7.18;6.47;;;20.80;58.70;;;;;;5037556;28;20025;-63
2022/11/06 08:57:37;;;;;;;6.93;6.25;;;20.80;58.70;;;;;;5021240;28;20026;-64
2022/11/06 09:00:03;;;;;;;7.65;6.95;;;20.90;58.70;;;;;;5019349;28;20435;-63
2022/11/06 09:02:29;;;;;;;7.03;6.40;;;20.80;58.70;;;;;;5009532;28;20096;-65
2022/11/06 09:04:54;;;;;;;7.22;6.53;;;20.80;58.70;;;;;;5007337;28;20030;-63
2022/11/06 09:07:20;;;;;;;7.53;6.82;;;20.80;59.20;;;;;;5011830;28;20080;-62
2022/11/06 09:09:45;;;;;;;7.07;6.38;;;20.80;58.70;;;;;;5001024;28;20548;-63
2022/11/06 09:12:11;;;;;;;6.85;6.22;;;20.80;58.70;;;;;;5005899;28;20053;-63
2022/11/06 09:14:38;;;;;;;6.43;5.82;;;20.80;58.70;;;;;;5020540;28;20034;-63
2022/11/06 09:17:04;;;;;;;6.75;6.05;;;20.80;59.20;;;;;;5022991;28;20552;-63
2022/11/06 09:19:30;;;;;;;6.88;6.28;;;20.80;58.70;;;;;;5025918;28;20028;-63
2022/11/06 09:21:55;;;;;;;6.38;5.78;;;20.70;58.70;;;;;;5009467;28;20120;-64
2022/11/06 09:24:21;;;;;;;6.68;5.78;;;20.80;58.70;;;;;;5010074;28;20030;-63
2022/11/06 09:26:47;;;;;;;6.72;5.90;;;20.70;58.70;;;;;;5017724;28;20070;-63
2022/11/06 09:29:12;;;;;;;6.43;5.82;;;20.70;58.70;;;;;;5021708;28;20473;-63
2022/11/06 09:31:38;;;;;;;6.75;6.13;;;20.70;58.70;;;;;;5017508;28;20026;-64
2022/11/06 09:34:03;;;;;;;6.13;5.53;;;20.80;58.80;;;;;;5007270;28;20044;-65
2022/11/06 09:36:29;;;;;;;6.20;5.60;;;20.70;58.70;;;;;;5008588;28;20037;-63
2022/11/06 09:38:55;;;;;;;6.15;5.53;;;20.70;58.70;;;;;;5011692;28;20030;-64
2022/11/06 09:41:31;;;;;;;6.15;5.55;;;20.70;58.70;;;;;;5013413;28;20423;-64
2022/11/06 09:44:40;;;;;;;6.28;5.68;;;20.80;58.80;;;;;;5007438;28;20064;-63
2022/11/06 09:47:32;;;;;;;6.00;5.40;;;20.70;58.70;;;;;;5003880;28;20093;-64
2022/11/06 09:50:00;;;;;;;6.18;5.57;;;20.70;58.70;;;;;;5005625;28;20425;-64
2022/11/06 09:52:49;;;;;;;6.53;5.82;;;20.70;58.70;;;;;;5009589;28;20489;-63
2022/11/06 09:55:20;;;;;;;6.07;5.43;;;20.70;58.70;;;;;;4992114;28;20165;-63
2022/11/06 09:57:54;;;;;;;6.00;5.40;;;20.70;58.70;;;;;;5005584;28;20025;-63
2022/11/06 10:00:21;;;;;;;6.20;5.60;;;20.70;58.80;;;;;;5004126;28;20026;-64
2022/11/06 10:03:22;;;;;;;5.90;5.30;;;20.70;58.80;;;;;;5016895;28;20443;-64
2022/11/06 10:05:51;;;;;;;6.47;5.75;;;20.70;58.70;;;;;;5011984;28;20373;-64
2022/11/06 10:08:21;;;;;;;5.63;5.00;;;20.70;58.70;;;;;;5016447;28;20369;-65
2022/11/06 10:11:01;;;;;;;6.00;5.40;;;20.70;58.70;;;;;;5009438;28;20034;-64
2022/11/06 10:14:03;;;;;;;5.85;5.20;;;20.70;58.80;;;;;;5015993;28;20029;-65
2022/11/06 10:16:28;;;;;;;5.60;5.03;;;20.70;58.80;;;;;;5002940;28;20101;-64
2022/11/06 10:19:34;;;;;;;5.95;5.35;;;20.70;58.80;;;;;;5012980;28;20041;-63
2022/11/06 10:22:29;;;;;;;5.50;5.00;;;20.70;58.80;;;;;;5008575;28;20026;-63
2022/11/06 10:25:18;;;;;;;5.97;5.40;;;20.70;58.70;;;;;;5013124;28;20030;-62
2022/11/06 10:28:01;;;;;;;6.15;5.47;;;20.70;59.00;;;;;;5015975;28;20033;-62
2022/11/06 10:30:36;;;;;;;6.22;5.30;;;20.80;59.00;;;;;;5015001;28;20444;-62
2022/11/06 10:33:33;;;;;;;5.85;5.25;;;20.80;59.30;;;;;;5029758;28;20026;-64
2022/11/06 10:36:08;;;;;;;5.95;5.28;;;20.80;58.80;;;;;;5030319;28;20100;-63
2022/11/06 10:38:37;;;;;;;6.15;5.53;;;20.80;58.70;;;;;;5030684;28;20029;-62
2022/11/06 10:41:03;;;;;;;;;;;20.90;58.70;;;;;;5032053;28;20441;-63
2022/11/06 10:43:31;;;;;;;8.32;5.95;;;20.90;58.70;;;;;;5027424;28;20012;-61
2022/11/06 10:46:24;;;;;;;6.60;6.00;;;20.90;58.60;;;;;;5030801;28;20030;-62
2022/11/06 10:48:56;;;;;;;7.00;6.30;;;21.00;58.60;;;;;;5025348;28;20034;-62
2022/11/06 10:51:34;;;;;;;6.28;5.68;;;21.00;58.40;;;;;;5042990;28;20111;-63
2022/11/06 10:54:18;;;;;;;6.40;5.80;;;21.10;58.40;;;;;;5041086;28;20079;-63
2022/11/06 10:56:48;;;;;;;6.55;5.85;;;21.10;58.40;;;;;;5033571;28;20502;-64
2022/11/06 10:59:15;;;;;;;6.78;6.00;;;21.10;58.30;;;;;;5036403;28;20022;-63
2022/11/06 11:01:41;;;;;;;6.53;5.93;;;21.20;58.70;;;;;;5029355;28;20456;-63
2022/11/06 11:04:06;;;;;;;6.25;5.65;;;21.20;58.20;;;;;;5023033;28;20029;-62
2022/11/06 11:06:32;;;;;;;6.40;5.30;;;21.20;58.10;;;;;;5013183;28;20030;-62
2022/11/06 11:08:58;;;;;;;6.80;5.50;;;21.30;58.10;;;;;;5016455;28;20493;-62
2022/11/06 11:11:25;;;;;;;6.47;5.70;;;21.30;58.00;;;;;;5019997;28;20029;-64
2022/11/06 11:14:00;;;;;;;6.85;6.13;;;21.30;58.00;;;;;;5020628;28;20030;-63
2022/11/06 11:16:33;;;;;;;6.53;5.70;;;21.30;57.90;;;;;;5018846;28;20101;-62
2022/11/06 11:19:25;;;;;;;5.85;5.25;;;21.30;57.90;;;;;;5008822;28;20036;-61
2022/11/06 11:22:04;;;;;;;6.45;5.55;;;21.40;57.80;;;;;;5018977;28;20480;-62
2022/11/06 11:24:30;;;;;;;7.38;6.13;;;21.40;57.80;;;;;;5012968;28;20113;-63
2022/11/06 11:27:02;;;;;;;6.25;5.65;;;21.40;57.80;;;;;;5009914;28;20453;-63
2022/11/06 11:29:31;;;;;;;6.88;5.68;;;21.50;57.90;;;;;;5001955;28;20036;-63
2022/11/06 11:32:06;;;;;;;7.00;6.22;;;21.50;57.80;;;;;;5003015;28;20037;-62
2022/11/06 11:34:42;;;;;;;6.97;5.50;;;21.50;57.80;;;;;;4988792;28;20049;-62
2022/11/06 11:37:24;;;;;;;7.05;5.88;;;21.50;57.80;;;;;;5011265;28;20436;-62
2022/11/06 11:39:50;;;;;;;6.57;5.72;;;21.60;57.80;;;;;;5001224;28;20034;-62
2022/11/06 11:42:30;;;;;;;7.80;6.22;;;21.60;57.80;;;;;;5013129;28;20456;-62
2022/11/06 11:45:08;;;;;;;7.15;5.80;;;21.60;57.80;;;;;;5011962;28;20038;-66
2022/11/06 11:47:35;;;;;;;6.88;5.25;;;21.60;57.80;;;;;;5017989;28;20026;-61
2022/11/06 11:50:31;;;;;;;7.05;5.70;;;21.60;58.30;;;;;;5024238;28;20116;-62
2022/11/06 11:53:20;;;;;;;7.32;5.88;;;21.60;58.30;;;;;;5001241;28;20042;-62
2022/11/06 11:55:51;;;;;;;6.45;5.75;;;21.70;57.80;;;;;;5014901;28;20029;-63
2022/11/06 11:58:24;;;;;;;6.97;5.80;;;21.70;57.70;;;;;;5013753;28;20038;-62
2022/11/06 12:00:57;;;;;;;6.40;5.47;;;21.70;58.10;;;;;;5016921;28;20040;-62
2022/11/06 12:03:46;;;;;;;7.43;5.55;;;21.80;57.70;;;;;;4995389;28;20109;-62
2022/11/06 12:06:14;;;;;;;6.78;6.07;;;21.80;57.60;;;;;;5009163;28;20462;-63
2022/11/06 12:08:52;;;;;;;7.72;6.00;;;21.80;57.60;;;;;;5008576;28;20037;-62
2022/11/06 12:11:29;;;;;;;6.45;5.60;;;21.80;58.10;;;;;;5012253;28;20096;-62
2022/11/06 12:14:21;;;;;;;6.70;5.80;;;21.90;57.60;;;;;;5016021;28;20483;-62
2022/11/06 12:16:53;;;;;;;6.07;5.40;;;21.80;57.60;;;;;;4983327;28;20041;-63
2022/11/06 12:19:20;;;;;;;7.13;5.72;;;21.90;57.60;;;;;;5010121;28;20239;-62
2022/11/06 12:21:52;;;;;;;5.30;4.80;;;21.90;57.60;;;;;;5011103;28;20030;-63
2022/11/06 12:24:50;;;;;;;6.30;5.35;;;21.90;57.50;;;;;;5009706;28;20044;-63
2022/11/06 12:27:31;;;;;;;8.57;5.80;;;21.90;57.50;;;;;;5011252;28;20136;-63
2022/11/06 12:30:15;;;;;;;6.72;5.57;;;21.90;57.40;;;;;;5012881;28;20029;-63
2022/11/06 12:32:56;;;;;;;6.57;5.18;;;22.00;57.40;;;;;;5061312;28;20071;-62
2022/11/06 12:35:35;;;;;;;7.00;5.68;;;22.00;57.40;;;;;;5059520;28;20028;-62
2022/11/06 12:38:01;;;;;;;;;;;22.00;57.40;;;;;;5060670;28;20468;-62
2022/11/06 12:40:56;;;;;;;6.07;4.78;;;22.00;57.40;;;;;;5044865;28;19912;-63
2022/11/06 12:43:39;;;;;;;7.60;5.22;;;22.00;57.30;;;;;;5050535;28;20136;-63
2022/11/06 12:46:29;;;;;;;7.47;5.70;;;22.10;57.30;;;;;;5057983;28;20036;-62
2022/11/06 12:49:25;;;;;;;6.20;5.57;;;22.10;57.30;;;;;;5056750;28;20029;-60
2022/11/06 12:52:05;;;;;;;6.20;5.00;;;22.10;57.30;;;;;;5052518;28;20070;-62
2022/11/06 12:54:58;;;;;;;6.47;5.30;;;22.10;57.20;;;;;;5053292;28;20021;-63
2022/11/06 12:57:49;;;;;;;5.80;5.18;;;22.10;57.30;;;;;;5054104;28;20025;-62
2022/11/06 13:00:26;;;;;;;6.32;5.03;;;22.10;57.20;;;;;;5053208;28;20032;-62
2022/11/06 13:03:00;;;;;;;5.65;4.90;;;22.10;57.70;;;;;;5049874;28;20399;-62
2022/11/06 13:05:51;;;;;;;6.07;5.03;;;22.20;57.20;;;;;;5055438;28;20360;-62
2022/11/06 13:08:52;;;;;;;5.40;4.60;;;22.20;57.20;;;;;;5047673;28;20460;-62
2022/11/06 13:11:23;;;;;;;6.18;5.15;;;22.20;57.10;;;;;;5047656;28;20021;-64